createdAt,value
2022-11-29T05:01:02.139Z,6.85
2022-11-29T05:03:35.536Z,6.13
2022-11-29T05:06:24.939Z,7.22
2022-11-29T05:08:58.120Z,6.95
2022-11-29T05:11:43.134Z,8.77
2022-11-29T05:14:09.448Z,7.88
2022-11-29T05:16:35.753Z,8.00
2022-11-29T05:19:02.094Z,8.43
2022-11-29T05:21:34.510Z,7.90
2022-11-29T05:24:14.716Z,7.75
2022-11-29T05:26:54.970Z,9.60
2022-11-29T05:29:53.516Z,8.43
2022-11-29T05:32:22.893Z,8.50
2022-11-29T05:34:49.368Z,8.63
2022-11-29T05:37:18.682Z,9.00
2022-11-29T05:40:05.286Z,9.43
2022-11-29T05:42:31.657Z,8.80
2022-11-29T05:45:04.741Z,8.65
2022-11-29T05:47:42.619Z,8.57
2022-11-29T05:50:19.007Z,8.73
2022-11-29T05:52:45.350Z,7.97
2022-11-29T05:55:14.764Z,6.90
2022-11-29T05:57:53.657Z,7.30
2022-11-29T06:00:20.182Z,7.40
2022-11-29T06:02:51.399Z,7.05
2022-11-29T06:05:24.046Z,7.05
2022-11-29T06:08:02.502Z,7.03
2022-11-29T06:10:32.758Z,7.68
2022-11-29T06:13:08.203Z,7.30
2022-11-29T06:18:22.790Z,7.78
2022-11-29T06:20:49.091Z,9.07
2022-11-29T06:23:15.471Z,9.15
2022-11-29T06:26:04.133Z,7.90
2022-11-29T06:28:30.773Z,9.38
2022-11-29T06:31:15.107Z,7.40
2022-11-29T06:33:50.772Z,7.53
2022-11-29T06:36:26.175Z,7.90
2022-11-29T06:41:21.673Z,7.32
2022-11-29T06:43:48.516Z,7.88
2022-11-29T06:46:14.951Z,7.82
2022-11-29T06:48:51.642Z,6.90
2022-11-29T06:51:25.156Z,7.75
2022-11-29T06:53:57.266Z,8.45
2022-11-29T06:56:29.675Z,8.05
2022-11-29T06:59:02.088Z,8.65
2022-11-29T07:01:31.483Z,8.30
2022-11-29T07:04:04.091Z,7.35
2022-11-29T07:06:32.006Z,7.65
2022-11-29T07:09:00.581Z,7.97
2022-11-29T07:11:27.925Z,8.23
2022-11-29T07:13:54.424Z,9.15
2022-11-29T07:16:35.952Z,9.10
2022-11-29T07:19:02.376Z,8.52
2022-11-29T07:21:44.214Z,7.47
2022-11-29T07:24:22.943Z,8.82
2022-11-29T07:26:49.275Z,8.05
2022-11-29T07:29:28.676Z,9.25
2022-11-29T07:31:55.059Z,9.88
2022-11-29T07:34:41.688Z,9.05
2022-11-29T07:37:11.193Z,10.65
2022-11-29T07:40:10.148Z,11.00
2022-11-29T07:42:48.866Z,11.57
2022-11-29T07:45:23.930Z,10.93
2022-11-29T07:47:50.425Z,11.02
2022-11-29T07:50:16.992Z,10.50
2022-11-29T07:52:43.700Z,10.38
2022-11-29T07:55:29.697Z,10.30
2022-11-29T07:57:56.122Z,11.45
2022-11-29T08:00:22.760Z,9.73
2022-11-29T08:02:49.916Z,10.18
2022-11-29T08:05:19.340Z,11.05
2022-11-29T08:07:47.362Z,12.05
2022-11-29T08:10:15.176Z,13.80
2022-11-29T08:12:42.761Z,12.68
2022-11-29T08:15:09.484Z,16.52
2022-11-29T08:17:37.042Z,13.55
2022-11-29T08:20:04.437Z,13.25
2022-11-29T08:22:31.047Z,11.13
2022-11-29T08:24:58.533Z,10.95
2022-11-29T08:27:24.934Z,12.00
2022-11-29T08:29:51.355Z,12.02
2022-11-29T08:32:17.830Z,12.90
2022-11-29T08:34:44.680Z,11.00
2022-11-29T08:37:11.238Z,10.65
2022-11-29T08:39:37.678Z,10.10
2022-11-29T08:42:04.224Z,15.35
2022-11-29T08:44:30.612Z,14.77
2022-11-29T08:47:17.399Z,16.13
2022-11-29T08:50:01.787Z,17.88
2022-11-29T08:52:50.977Z,17.60
2022-11-29T08:55:18.870Z,17.75
2022-11-29T08:57:45.383Z,16.60
2022-11-29T09:00:13.751Z,16.10
2022-11-29T09:02:40.308Z,15.07
2022-11-29T09:05:07.431Z,14.60
2022-11-29T09:07:33.863Z,13.23
2022-11-29T09:10:05.040Z,12.40
2022-11-29T09:12:32.701Z,13.02
2022-11-29T09:14:59.161Z,12.55
2022-11-29T09:17:25.656Z,13.63
2022-11-29T09:19:52.120Z,12.70
2022-11-29T09:22:18.620Z,13.90
2022-11-29T09:24:46.893Z,14.75
2022-11-29T09:27:13.600Z,14.77
2022-11-29T09:29:40.081Z,16.30
2022-11-29T09:32:06.587Z,15.85
2022-11-29T09:34:33.016Z,16.73
2022-11-29T09:36:59.423Z,18.02
2022-11-29T09:39:26.233Z,16.50
2022-11-29T09:42:04.578Z,16.45
2022-11-29T09:44:42.051Z,18.40
2022-11-29T09:47:15.666Z,17.35
2022-11-29T09:49:49.234Z,18.58
2022-11-29T09:52:24.691Z,17.42
2022-11-29T09:57:19.246Z,18.70
2022-11-29T09:59:47.956Z,20.27
2022-11-29T10:02:24.635Z,20.23
2022-11-29T10:04:56.781Z,20.40
2022-11-29T10:07:39.104Z,18.65
2022-11-29T10:10:17.168Z,17.60
2022-11-29T10:12:49.390Z,16.10
2022-11-29T10:15:17.032Z,18.08
2022-11-29T10:18:01.988Z,17.35
2022-11-29T10:20:34.253Z,16.03
2022-11-29T10:23:21.604Z,18.20
2022-11-29T10:25:50.036Z,16.45
2022-11-29T10:28:18.612Z,19.33
2022-11-29T10:30:45.060Z,18.67
2022-11-29T10:33:21.975Z,18.67
2022-11-29T10:35:50.483Z,17.45
2022-11-29T10:38:32.522Z,17.35
2022-11-29T10:41:05.914Z,16.85
2022-11-29T10:43:32.343Z,16.33
2022-11-29T10:45:59.058Z,16.88
2022-11-29T10:48:27.741Z,16.15
2022-11-29T10:50:54.304Z,16.58
2022-11-29T10:53:40.925Z,16.75
2022-11-29T10:56:24.036Z,16.83
2022-11-29T10:59:13.489Z,16.52
2022-11-29T11:01:43.899Z,15.88
2022-11-29T11:04:22.504Z,15.90
2022-11-29T11:06:51.523Z,16.20
2022-11-29T11:09:22.716Z,16.70
2022-11-29T11:11:53.639Z,15.50
2022-11-29T11:14:27.189Z,15.73
2022-11-29T11:16:54.102Z,15.43
2022-11-29T11:19:28.847Z,17.90
2022-11-29T11:21:56.349Z,17.80
2022-11-29T11:24:30.969Z,16.50
2022-11-29T11:26:57.681Z,15.18
2022-11-29T11:29:32.234Z,16.80
2022-11-29T11:31:59.487Z,18.57
2022-11-29T11:34:27.819Z,25.50
2022-11-29T11:37:11.030Z,19.67
2022-11-29T11:39:37.403Z,17.02
2022-11-29T11:42:22.457Z,20.17
2022-11-29T11:44:50.412Z,18.75
2022-11-29T11:47:19.408Z,19.25
2022-11-29T11:50:02.129Z,17.80
2022-11-29T11:52:30.224Z,17.35
2022-11-29T11:55:22.488Z,18.60
2022-11-29T11:58:16.205Z,17.10
2022-11-29T12:01:03.898Z,16.33
2022-11-29T12:03:43.468Z,17.70
2022-11-29T12:06:28.762Z,17.77
2022-11-29T12:08:59.410Z,18.50
2022-11-29T12:11:26.376Z,18.27
2022-11-29T12:13:55.419Z,17.23
2022-11-29T12:16:28.322Z,18.35
2022-11-29T12:19:14.964Z,17.10
2022-11-29T12:21:43.372Z,19.02
2022-11-29T12:24:26.548Z,18.00
2022-11-29T12:26:58.016Z,17.45
2022-11-29T12:29:27.244Z,17.05
2022-11-29T12:32:13.505Z,17.50
2022-11-29T12:34:58.138Z,16.38
2022-11-29T12:37:24.507Z,15.63
2022-11-29T12:40:00.087Z,15.40
2022-11-29T12:42:26.572Z,14.30
2022-11-29T12:45:11.718Z,15.52
2022-11-29T12:47:38.204Z,16.75
2022-11-29T12:50:07.694Z,17.08
2022-11-29T12:52:43.712Z,15.85
2022-11-29T12:55:28.791Z,15.63
2022-11-29T12:58:06.858Z,15.90
2022-11-29T13:00:39.169Z,15.50
2022-11-29T13:03:19.815Z,15.27
2022-11-29T13:05:46.212Z,14.57
2022-11-29T13:08:21.572Z,14.27
2022-11-29T13:11:11.186Z,15.05
2022-11-29T13:13:45.963Z,14.18
2022-11-29T13:19:19.017Z,15.02
2022-11-29T13:21:57.686Z,13.95
2022-11-29T13:24:31.463Z,14.07
2022-11-29T13:26:58.040Z,14.32
2022-11-29T13:29:24.746Z,13.45
2022-11-29T13:31:51.501Z,13.57
2022-11-29T13:34:21.867Z,13.90
2022-11-29T13:36:54.200Z,13.50
2022-11-29T13:39:20.555Z,12.32
2022-11-29T13:42:16.477Z,14.07
2022-11-29T13:44:52.836Z,13.23
2022-11-29T13:47:19.771Z,12.77
2022-11-29T13:49:55.231Z,12.60
2022-11-29T13:54:47.895Z,12.25
2022-11-29T13:57:14.464Z,13.38
2022-11-29T13:59:48.051Z,13.90
2022-11-29T14:02:28.663Z,14.07
2022-11-29T14:04:55.251Z,17.55
2022-11-29T14:07:21.733Z,16.30
2022-11-29T14:09:59.519Z,14.73
2022-11-29T14:12:35.957Z,14.40
2022-11-29T14:15:22.784Z,14.63
2022-11-29T14:17:52.678Z,18.13
2022-11-29T14:20:25.265Z,17.25
2022-11-29T14:23:03.872Z,16.33
2022-11-29T14:28:17.252Z,15.65
2022-11-29T14:30:48.209Z,16.02
2022-11-29T14:33:17.642Z,16.23
2022-11-29T14:35:47.140Z,15.93
2022-11-29T14:38:31.180Z,14.82
2022-11-29T14:41:05.956Z,14.95
2022-11-29T14:43:36.480Z,14.83
2022-11-29T14:46:26.167Z,15.85
2022-11-29T14:48:55.482Z,14.75
2022-11-29T14:51:23.036Z,15.05
2022-11-29T14:53:59.911Z,15.25
2022-11-29T14:56:29.646Z,15.00
2022-11-29T14:59:14.629Z,16.05
2022-11-29T15:01:43.028Z,17.13
2022-11-29T15:04:09.771Z,17.75
2022-11-29T15:06:41.652Z,16.60
2022-11-29T15:11:57.790Z,16.45
2022-11-29T15:14:41.484Z,15.93
2022-11-29T15:17:30.478Z,16.38
2022-11-29T15:19:56.843Z,17.27
2022-11-29T15:22:42.084Z,18.00
2022-11-29T15:25:12.846Z,19.08
2022-11-29T15:27:49.523Z,17.75
2022-11-29T15:30:19.833Z,17.98
2022-11-29T15:32:46.376Z,17.42
2022-11-29T15:35:19.291Z,17.17
2022-11-29T15:37:48.448Z,18.10
2022-11-29T15:40:14.790Z,18.02
2022-11-29T15:42:43.272Z,19.05
2022-11-29T15:45:29.956Z,19.80
2022-11-29T15:48:11.281Z,17.48
2022-11-29T15:50:38.200Z,18.08
2022-11-29T15:53:05.981Z,19.48
2022-11-29T15:55:33.266Z,20.75
2022-11-29T15:58:03.971Z,17.40
2022-11-29T16:00:34.990Z,19.80
2022-11-29T16:03:02.226Z,20.23
2022-11-29T16:05:38.617Z,19.73
2022-11-29T16:08:07.260Z,20.13
2022-11-29T16:10:53.318Z,21.20
2022-11-29T16:13:25.746Z,20.92
2022-11-29T16:16:04.948Z,22.60
2022-11-29T16:18:31.504Z,21.08
2022-11-29T16:20:59.812Z,19.08
2022-11-29T16:23:36.276Z,19.80
2022-11-29T16:26:12.062Z,19.98
2022-11-29T16:28:43.115Z,20.30
2022-11-29T16:31:12.417Z,21.35
2022-11-29T16:33:43.564Z,22.48
2022-11-29T16:36:20.645Z,22.52
2022-11-29T16:38:48.360Z,20.02
2022-11-29T16:41:30.252Z,21.30
2022-11-29T16:43:57.994Z,21.15
2022-11-29T16:46:25.994Z,21.33
2022-11-29T16:48:53.502Z,24.08
2022-11-29T16:51:20.839Z,58.92
2022-11-29T16:53:53.571Z,43.60
2022-11-29T16:56:24.335Z,30.23
2022-11-29T16:59:20.512Z,25.08
2022-11-29T17:01:41.765Z,25.58
2022-11-29T17:04:08.702Z,23.60
2022-11-29T17:06:35.429Z,24.17
2022-11-29T17:09:01.815Z,22.80
2022-11-29T17:11:28.165Z,23.58
2022-11-29T17:13:54.502Z,20.75
2022-11-29T17:16:22.835Z,23.40
2022-11-29T17:18:49.574Z,21.05
2022-11-29T17:21:17.938Z,21.77
2022-11-29T17:23:45.115Z,24.00
2022-11-29T17:26:11.600Z,24.23
2022-11-29T17:28:39.846Z,23.23
2022-11-29T17:31:13.217Z,22.50
2022-11-29T17:33:39.838Z,22.67
2022-11-29T17:36:07.240Z,23.25
2022-11-29T17:38:33.880Z,23.98
2022-11-29T17:41:00.222Z,23.60
2022-11-29T17:43:26.565Z,23.13
2022-11-29T17:45:53.035Z,23.48
2022-11-29T17:48:19.436Z,23.42
2022-11-29T17:50:45.750Z,22.10
2022-11-29T17:53:12.084Z,20.83
2022-11-29T17:55:38.440Z,22.27
2022-11-29T17:58:04.795Z,22.33
2022-11-29T18:00:31.254Z,21.50
2022-11-29T18:02:57.688Z,19.33
2022-11-29T18:05:24.253Z,18.65
2022-11-29T18:07:59.733Z,17.33
2022-11-29T18:12:52.559Z,15.18
2022-11-29T18:15:18.951Z,15.82
2022-11-29T18:17:45.318Z,15.65
2022-11-29T18:20:13.622Z,15.05
2022-11-29T18:22:40.198Z,14.75
2022-11-29T18:25:37.171Z,14.93
2022-11-29T18:27:53.259Z,15.75
2022-11-29T18:30:19.669Z,15.82
2022-11-29T18:32:46.055Z,16.25
2022-11-29T18:35:12.418Z,16.33
2022-11-29T18:38:12.967Z,23.55
2022-11-29T18:40:25.188Z,17.58
2022-11-29T18:42:51.572Z,20.10
2022-11-29T18:45:18.072Z,14.88
2022-11-29T18:47:45.713Z,15.68
2022-11-29T18:50:12.448Z,15.98
2022-11-29T18:52:40.824Z,15.30
2022-11-29T18:55:07.567Z,14.57
2022-11-29T18:57:34.048Z,14.90
2022-11-29T19:00:00.474Z,14.68
2022-11-29T19:02:26.929Z,14.93
2022-11-29T19:04:53.340Z,13.73
2022-11-29T19:07:19.833Z,13.25
2022-11-29T19:09:46.288Z,13.80
2022-11-29T19:12:12.641Z,13.02
2022-11-29T19:14:42.739Z,11.45
2022-11-29T19:17:11.552Z,12.68
2022-11-29T19:19:38.240Z,12.60
2022-11-29T19:22:04.677Z,13.30
2022-11-29T19:24:31.054Z,12.55
2022-11-29T19:26:57.488Z,12.63
2022-11-29T19:29:24.021Z,13.00
2022-11-29T19:31:50.599Z,17.02
2022-11-29T19:34:16.971Z,16.40
2022-11-29T19:36:44.785Z,14.95
2022-11-29T19:39:12.935Z,15.20
2022-11-29T19:41:39.601Z,16.95
2022-11-29T19:44:07.200Z,15.77
2022-11-29T19:46:35.136Z,14.60
2022-11-29T19:49:02.265Z,14.68
2022-11-29T19:51:29.605Z,13.70
2022-11-29T19:53:57.243Z,13.55
2022-11-29T19:56:24.156Z,14.18
2022-11-29T19:58:50.717Z,15.38
2022-11-29T20:01:22.492Z,16.75
2022-11-29T20:03:49.397Z,14.48
2022-11-29T20:06:15.947Z,14.35
2022-11-29T20:08:42.623Z,12.80
2022-11-29T20:11:10.330Z,13.27
2022-11-29T20:13:37.708Z,12.68
2022-11-29T20:16:04.768Z,12.93
2022-11-29T20:18:32.142Z,13.70
2022-11-29T20:21:10.760Z,12.43
2022-11-29T20:23:38.318Z,14.52
2022-11-29T20:26:08.005Z,14.10
2022-11-29T20:28:34.801Z,13.82
2022-11-29T20:31:08.188Z,15.05
2022-11-29T20:33:34.651Z,14.80
2022-11-29T20:36:06.684Z,13.30
2022-11-29T20:38:37.426Z,12.82
2022-11-29T20:41:15.365Z,12.30
2022-11-29T20:43:50.392Z,12.95
2022-11-29T20:46:16.871Z,13.18
2022-11-29T20:48:43.422Z,13.02
2022-11-29T20:51:10.163Z,12.85
2022-11-29T20:53:40.735Z,13.23
2022-11-29T20:56:07.804Z,13.30
2022-11-29T20:58:34.426Z,15.82
2022-11-29T21:01:00.867Z,13.88
2022-11-29T21:03:28.336Z,13.10
2022-11-29T21:05:55.297Z,15.15
2022-11-29T21:08:22.102Z,12.93
2022-11-29T21:10:49.104Z,14.35
2022-11-29T21:13:15.974Z,14.40
2022-11-29T21:15:42.881Z,13.68
2022-11-29T21:18:16.341Z,14.02
2022-11-29T21:20:43.451Z,15.10
2022-11-29T21:23:09.803Z,14.05
2022-11-29T21:25:36.161Z,16.02
2022-11-29T21:28:02.949Z,15.73
2022-11-29T21:30:29.487Z,15.88
2022-11-29T21:32:56.043Z,15.07
2022-11-29T21:35:22.382Z,14.48
2022-11-29T21:37:51.060Z,13.93
2022-11-29T21:40:17.405Z,14.88
2022-11-29T21:42:43.791Z,13.60
2022-11-29T21:45:15.187Z,12.80
2022-11-29T21:47:42.476Z,14.40
2022-11-29T21:50:09.081Z,13.82
2022-11-29T21:52:35.423Z,12.23
2022-11-29T21:55:01.950Z,13.70
2022-11-29T21:57:28.354Z,15.20
2022-11-29T21:59:55.026Z,15.07
2022-11-29T22:02:21.481Z,13.00
2022-11-29T22:04:48.250Z,12.07
2022-11-29T22:07:14.987Z,14.02
2022-11-29T22:09:42.068Z,13.13
2022-11-29T22:12:31.900Z,13.20
2022-11-29T22:14:55.032Z,11.82
2022-11-29T22:17:21.401Z,13.70
2022-11-29T22:19:47.868Z,14.20
2022-11-29T22:22:14.262Z,14.00
2022-11-29T22:24:40.763Z,12.57
2022-11-29T22:27:07.208Z,13.02
2022-11-29T22:29:33.575Z,13.30
2022-11-29T22:32:01.173Z,13.75
2022-11-29T22:34:27.644Z,16.27
2022-11-29T22:36:54.200Z,14.73
2022-11-29T22:39:20.614Z,14.75
2022-11-29T22:41:52.321Z,13.80
2022-11-29T22:44:20.202Z,15.85
2022-11-29T22:46:46.653Z,15.40
2022-11-29T22:49:13.065Z,15.55
2022-11-29T22:51:39.499Z,16.23
2022-11-29T22:54:07.080Z,16.65
2022-11-29T22:56:34.840Z,15.38
2022-11-29T22:59:01.415Z,15.90
2022-11-29T23:01:28.834Z,13.07
2022-11-29T23:03:59.159Z,30.75
2022-11-29T23:06:27.257Z,15.90
2022-11-29T23:08:55.928Z,15.27
2022-11-29T23:11:23.555Z,15.43
2022-11-29T23:13:49.962Z,14.35
2022-11-29T23:16:17.550Z,14.30
2022-11-29T23:18:45.813Z,14.25
2022-11-29T23:21:13.530Z,14.52
2022-11-29T23:23:40.207Z,14.13
2022-11-29T23:26:07.093Z,13.88
2022-11-29T23:28:34.205Z,15.48
2022-11-29T23:31:00.831Z,13.85
2022-11-29T23:33:28.108Z,13.98
2022-11-29T23:36:03.833Z,13.70
2022-11-29T23:38:30.714Z,13.15
2022-11-29T23:40:57.160Z,12.35
2022-11-29T23:43:23.677Z,15.98
2022-11-29T23:45:50.194Z,14.52
2022-11-29T23:48:16.649Z,13.60
2022-11-29T23:50:43.693Z,14.88
2022-11-29T23:53:13.744Z,12.88
2022-11-29T23:55:40.271Z,14.50
2022-11-29T23:58:06.774Z,14.95
